sensor_id;sensor_type;location;lat;lon;timestamp;temperature;humidity
67529;DHT22;54366;51.980;5.856;2023-05-07T00:00:10;16.90;77.60
67529;DHT22;54366;51.980;5.856;2023-05-07T00:02:50;16.90;77.40
67529;DHT22;54366;51.980;5.856;2023-05-07T00:05:22;16.80;77.30
67529;DHT22;54366;51.980;5.856;2023-05-07T00:07:55;16.90;77.30
67529;DHT22;54366;51.980;5.856;2023-05-07T00:10:28;16.80;77.30
67529;DHT22;54366;51.980;5.856;2023-05-07T00:12:55;16.80;77.50
67529;DHT22;54366;51.980;5.856;2023-05-07T00:15:27;16.80;77.30
67529;DHT22;54366;51.980;5.856;2023-05-07T00:18:01;16.80;77.90
67529;DHT22;54366;51.980;5.856;2023-05-07T00:20:27;16.80;78.20
67529;DHT22;54366;51.980;5.856;2023-05-07T00:22:59;16.70;78.70
67529;DHT22;54366;51.980;5.856;2023-05-07T00:25:32;16.70;78.90
67529;DHT22;54366;51.980;5.856;2023-05-07T00:28:05;16.70;79.00
67529;DHT22;54366;51.980;5.856;2023-05-07T00:30:39;16.70;78.80
67529;DHT22;54366;51.980;5.856;2023-05-07T00:33:11;16.70;78.70
67529;DHT22;54366;51.980;5.856;2023-05-07T00:35:44;16.60;79.00
67529;DHT22;54366;51.980;5.856;2023-05-07T00:38:11;16.60;78.60
67529;DHT22;54366;51.980;5.856;2023-05-07T00:40:43;16.60;78.40
67529;DHT22;54366;51.980;5.856;2023-05-07T00:43:16;16.60;78.00
67529;DHT22;54366;51.980;5.856;2023-05-07T00:45:49;16.60;78.60
67529;DHT22;54366;51.980;5.856;2023-05-07T00:48:16;16.50;79.10
67529;DHT22;54366;51.980;5.856;2023-05-07T00:50:48;16.50;79.20
67529;DHT22;54366;51.980;5.856;2023-05-07T00:53:21;16.50;79.00
67529;DHT22;54366;51.980;5.856;2023-05-07T00:55:55;16.40;78.80
67529;DHT22;54366;51.980;5.856;2023-05-07T00:58:29;16.40;78.50
67529;DHT22;54366;51.980;5.856;2023-05-07T01:00:56;16.40;78.70
67529;DHT22;54366;51.980;5.856;2023-05-07T01:03:29;16.30;78.90
67529;DHT22;54366;51.980;5.856;2023-05-07T01:06:10;16.30;79.10
67529;DHT22;54366;51.980;5.856;2023-05-07T01:08:45;16.20;79.20
67529;DHT22;54366;51.980;5.856;2023-05-07T01:11:17;16.20;79.50
67529;DHT22;54366;51.980;5.856;2023-05-07T01:13:53;16.10;79.80
67529;DHT22;54366;51.980;5.856;2023-05-07T01:16:19;16.10;79.70
67529;DHT22;54366;51.980;5.856;2023-05-07T01:18:53;16.10;80.00
67529;DHT22;54366;51.980;5.856;2023-05-07T01:21:26;16.10;79.60
67529;DHT22;54366;51.980;5.856;2023-05-07T01:24:05;16.10;79.70
67529;DHT22;54366;51.980;5.856;2023-05-07T01:26:32;16.10;79.60
67529;DHT22;54366;51.980;5.856;2023-05-07T01:29:06;16.10;79.20
67529;DHT22;54366;51.980;5.856;2023-05-07T01:31:34;16.10;79.10
67529;DHT22;54366;51.980;5.856;2023-05-07T01:34:10;16.10;79.20
67529;DHT22;54366;51.980;5.856;2023-05-07T01:36:45;16.00;79.00
67529;DHT22;54366;51.980;5.856;2023-05-07T01:39:12;16.10;79.50
67529;DHT22;54366;51.980;5.856;2023-05-07T01:41:46;16.10;79.90
67529;DHT22;54366;51.980;5.856;2023-05-07T01:44:20;16.00;79.80
67529;DHT22;54366;51.980;5.856;2023-05-07T01:46:47;16.10;79.70
67529;DHT22;54366;51.980;5.856;2023-05-07T01:49:20;16.10;80.00
67529;DHT22;54366;51.980;5.856;2023-05-07T01:51:53;16.10;79.80
67529;DHT22;54366;51.980;5.856;2023-05-07T01:54:28;16.10;79.70
67529;DHT22;54366;51.980;5.856;2023-05-07T01:57:00;16.00;79.50
67529;DHT22;54366;51.980;5.856;2023-05-07T01:59:34;16.10;79.30
67529;DHT22;54366;51.980;5.856;2023-05-07T02:02:00;16.10;79.00
67529;DHT22;54366;51.980;5.856;2023-05-07T02:04:34;16.10;79.20
67529;DHT22;54366;51.980;5.856;2023-05-07T02:07:08;16.10;79.20
67529;DHT22;54366;51.980;5.856;2023-05-07T02:09:40;16.10;79.30
67529;DHT22;54366;51.980;5.856;2023-05-07T02:12:07;16.10;79.70
67529;DHT22;54366;51.980;5.856;2023-05-07T02:14:41;16.10;79.90
67529;DHT22;54366;51.980;5.856;2023-05-07T02:17:13;16.10;79.80
67529;DHT22;54366;51.980;5.856;2023-05-07T02:19:46;16.10;79.60
67529;DHT22;54366;51.980;5.856;2023-05-07T02:22:19;16.10;80.00
67529;DHT22;54366;51.980;5.856;2023-05-07T02:24:53;16.10;80.40
67529;DHT22;54366;51.980;5.856;2023-05-07T02:27:19;16.10;79.80
67529;DHT22;54366;51.980;5.856;2023-05-07T02:29:51;16.10;80.00
67529;DHT22;54366;51.980;5.856;2023-05-07T02:32:24;16.10;79.80
67529;DHT22;54366;51.980;5.856;2023-05-07T02:34:57;16.10;79.60
67529;DHT22;54366;51.980;5.856;2023-05-07T02:37:31;16.10;79.60
67529;DHT22;54366;51.980;5.856;2023-05-07T02:40:04;16.10;79.30
67529;DHT22;54366;51.980;5.856;2023-05-07T02:42:38;16.10;79.20
67529;DHT22;54366;51.980;5.856;2023-05-07T02:45:11;16.10;79.00
67529;DHT22;54366;51.980;5.856;2023-05-07T02:47:44;16.10;78.80
67529;DHT22;54366;51.980;5.856;2023-05-07T02:50:11;16.10;78.60
67529;DHT22;54366;51.980;5.856;2023-05-07T02:52:43;16.10;78.90
67529;DHT22;54366;51.980;5.856;2023-05-07T02:55:17;16.10;78.90
67529;DHT22;54366;51.980;5.856;2023-05-07T02:57:50;16.10;78.80
67529;DHT22;54366;51.980;5.856;2023-05-07T03:00:18;16.00;78.70
67529;DHT22;54366;51.980;5.856;2023-05-07T03:03:21;16.00;78.90
67529;DHT22;54366;51.980;5.856;2023-05-07T03:05:53;16.00;78.80
67529;DHT22;54366;51.980;5.856;2023-05-07T03:08:20;16.10;78.80
67529;DHT22;54366;51.980;5.856;2023-05-07T03:10:53;16.00;78.90
67529;DHT22;54366;51.980;5.856;2023-05-07T03:13:26;16.00;79.00
67529;DHT22;54366;51.980;5.856;2023-05-07T03:15:58;16.00;79.00
67529;DHT22;54366;51.980;5.856;2023-05-07T03:18:31;16.00;79.00
67529;DHT22;54366;51.980;5.856;2023-05-07T03:21:04;16.00;78.90
67529;DHT22;54366;51.980;5.856;2023-05-07T03:23:38;16.00;78.80
67529;DHT22;54366;51.980;5.856;2023-05-07T03:26:10;16.00;78.60
67529;DHT22;54366;51.980;5.856;2023-05-07T03:28:37;16.10;78.60
67529;DHT22;54366;51.980;5.856;2023-05-07T03:31:13;16.00;78.50
67529;DHT22;54366;51.980;5.856;2023-05-07T03:33:53;16.00;78.50
67529;DHT22;54366;51.980;5.856;2023-05-07T03:36:26;16.00;78.80
67529;DHT22;54366;51.980;5.856;2023-05-07T03:38:59;16.00;78.60
67529;DHT22;54366;51.980;5.856;2023-05-07T03:41:38;16.00;78.80
67529;DHT22;54366;51.980;5.856;2023-05-07T03:44:11;16.00;78.70
67529;DHT22;54366;51.980;5.856;2023-05-07T03:46:37;16.00;78.70
67529;DHT22;54366;51.980;5.856;2023-05-07T03:49:11;16.00;78.70
67529;DHT22;54366;51.980;5.856;2023-05-07T03:51:45;16.00;78.60
67529;DHT22;54366;51.980;5.856;2023-05-07T03:54:18;16.00;78.70
67529;DHT22;54366;51.980;5.856;2023-05-07T03:56:46;16.00;78.80
67529;DHT22;54366;51.980;5.856;2023-05-07T03:59:20;16.00;78.80
67529;DHT22;54366;51.980;5.856;2023-05-07T04:01:54;16.00;78.90
67529;DHT22;54366;51.980;5.856;2023-05-07T04:04:41;16.00;78.90
67529;DHT22;54366;51.980;5.856;2023-05-07T04:07:13;16.00;79.10
67529;DHT22;54366;51.980;5.856;2023-05-07T04:09:50;16.00;79.10
67529;DHT22;54366;51.980;5.856;2023-05-07T04:12:16;15.90;79.10
67529;DHT22;54366;51.980;5.856;2023-05-07T04:14:50;15.90;79.00
67529;DHT22;54366;51.980;5.856;2023-05-07T04:17:24;15.90;79.20
67529;DHT22;54366;51.980;5.856;2023-05-07T04:19:57;15.90;79.40
67529;DHT22;54366;51.980;5.856;2023-05-07T04:22:23;15.90;79.30
67529;DHT22;54366;51.980;5.856;2023-05-07T04:24:56;15.90;79.30
67529;DHT22;54366;51.980;5.856;2023-05-07T04:27:29;15.90;79.50
67529;DHT22;54366;51.980;5.856;2023-05-07T04:30:03;15.90;79.50
67529;DHT22;54366;51.980;5.856;2023-05-07T04:32:38;15.90;79.40
67529;DHT22;54366;51.980;5.856;2023-05-07T04:35:12;15.90;79.50
67529;DHT22;54366;51.980;5.856;2023-05-07T04:37:44;15.90;79.40
67529;DHT22;54366;51.980;5.856;2023-05-07T04:40:18;15.90;79.50
67529;DHT22;54366;51.980;5.856;2023-05-07T04:42:50;15.90;79.70
67529;DHT22;54366;51.980;5.856;2023-05-07T04:45:24;15.80;80.00
67529;DHT22;54366;51.980;5.856;2023-05-07T04:47:53;15.80;80.10
67529;DHT22;54366;51.980;5.856;2023-05-07T04:50:26;15.90;80.70
67529;DHT22;54366;51.980;5.856;2023-05-07T04:53:01;15.90;80.50
67529;DHT22;54366;51.980;5.856;2023-05-07T04:55:35;15.90;80.30
67529;DHT22;54366;51.980;5.856;2023-05-07T04:58:09;15.80;80.40
67529;DHT22;54366;51.980;5.856;2023-05-07T05:00:43;15.80;81.00
67529;DHT22;54366;51.980;5.856;2023-05-07T05:03:17;15.80;81.00
67529;DHT22;54366;51.980;5.856;2023-05-07T05:05:51;15.80;80.80
67529;DHT22;54366;51.980;5.856;2023-05-07T05:08:25;15.80;80.80
67529;DHT22;54366;51.980;5.856;2023-05-07T05:11:01;15.90;81.00
67529;DHT22;54366;51.980;5.856;2023-05-07T05:13:28;15.80;81.00
67529;DHT22;54366;51.980;5.856;2023-05-07T05:16:08;15.80;81.30
67529;DHT22;54366;51.980;5.856;2023-05-07T05:18:42;15.80;81.40
67529;DHT22;54366;51.980;5.856;2023-05-07T05:21:17;15.80;81.40
67529;DHT22;54366;51.980;5.856;2023-05-07T05:23:54;15.80;81.40
67529;DHT22;54366;51.980;5.856;2023-05-07T05:26:28;15.80;81.40
67529;DHT22;54366;51.980;5.856;2023-05-07T05:28:54;15.80;81.30
67529;DHT22;54366;51.980;5.856;2023-05-07T05:31:29;15.80;82.00
67529;DHT22;54366;51.980;5.856;2023-05-07T05:34:02;15.80;81.20
67529;DHT22;54366;51.980;5.856;2023-05-07T05:36:29;15.90;82.00
67529;DHT22;54366;51.980;5.856;2023-05-07T05:39:02;15.90;82.10
67529;DHT22;54366;51.980;5.856;2023-05-07T05:41:35;15.90;81.90
67529;DHT22;54366;51.980;5.856;2023-05-07T05:44:08;15.80;82.10
67529;DHT22;54366;51.980;5.856;2023-05-07T05:46:42;15.80;81.90
67529;DHT22;54366;51.980;5.856;2023-05-07T05:49:09;15.90;82.10
67529;DHT22;54366;51.980;5.856;2023-05-07T05:51:43;15.80;81.80
67529;DHT22;54366;51.980;5.856;2023-05-07T05:54:16;15.80;81.80
67529;DHT22;54366;51.980;5.856;2023-05-07T05:56:49;15.80;82.10
67529;DHT22;54366;51.980;5.856;2023-05-07T05:59:23;15.80;82.20
67529;DHT22;54366;51.980;5.856;2023-05-07T06:01:55;15.90;82.20
67529;DHT22;54366;51.980;5.856;2023-05-07T06:04:42;15.90;82.10
67529;DHT22;54366;51.980;5.856;2023-05-07T06:07:18;15.90;81.80
67529;DHT22;54366;51.980;5.856;2023-05-07T06:09:51;15.90;81.70
67529;DHT22;54366;51.980;5.856;2023-05-07T06:12:17;15.90;81.50
67529;DHT22;54366;51.980;5.856;2023-05-07T06:14:50;15.90;81.50
67529;DHT22;54366;51.980;5.856;2023-05-07T06:17:23;16.00;81.90
67529;DHT22;54366;51.980;5.856;2023-05-07T06:19:52;16.00;81.90
67529;DHT22;54366;51.980;5.856;2023-05-07T06:22:25;16.00;82.00
67529;DHT22;54366;51.980;5.856;2023-05-07T06:24:51;16.10;81.80
67529;DHT22;54366;51.980;5.856;2023-05-07T06:27:24;16.00;81.60
67529;DHT22;54366;51.980;5.856;2023-05-07T06:29:58;16.10;82.00
67529;DHT22;54366;51.980;5.856;2023-05-07T06:32:32;16.10;81.80
67529;DHT22;54366;51.980;5.856;2023-05-07T06:35:05;16.10;81.70
67529;DHT22;54366;51.980;5.856;2023-05-07T06:37:41;16.10;81.60
67529;DHT22;54366;51.980;5.856;2023-05-07T06:40:22;16.20;81.70
67529;DHT22;54366;51.980;5.856;2023-05-07T06:42:58;16.20;81.70
67529;DHT22;54366;51.980;5.856;2023-05-07T06:45:55;16.30;81.60
67529;DHT22;54366;51.980;5.856;2023-05-07T06:48:28;16.30;81.40
67529;DHT22;54366;51.980;5.856;2023-05-07T06:51:04;16.40;81.40
67529;DHT22;54366;51.980;5.856;2023-05-07T06:53:38;16.40;81.40
67529;DHT22;54366;51.980;5.856;2023-05-07T06:56:05;16.40;81.40
67529;DHT22;54366;51.980;5.856;2023-05-07T06:58:39;16.40;81.60
67529;DHT22;54366;51.980;5.856;2023-05-07T07:01:11;16.40;81.70
67529;DHT22;54366;51.980;5.856;2023-05-07T07:03:45;16.50;81.30
67529;DHT22;54366;51.980;5.856;2023-05-07T07:06:25;16.40;81.30
67529;DHT22;54366;51.980;5.856;2023-05-07T07:08:59;16.50;81.30
67529;DHT22;54366;51.980;5.856;2023-05-07T07:11:26;16.50;81.30
67529;DHT22;54366;51.980;5.856;2023-05-07T07:14:00;16.50;81.30
67529;DHT22;54366;51.980;5.856;2023-05-07T07:16:37;16.60;81.50
67529;DHT22;54366;51.980;5.856;2023-05-07T07:19:11;16.60;81.20
67529;DHT22;54366;51.980;5.856;2023-05-07T07:21:45;16.60;81.20
67529;DHT22;54366;51.980;5.856;2023-05-07T07:24:19;16.70;81.10
67529;DHT22;54366;51.980;5.856;2023-05-07T07:26:57;16.70;80.80
67529;DHT22;54366;51.980;5.856;2023-05-07T07:29:33;16.80;80.80
67529;DHT22;54366;51.980;5.856;2023-05-07T07:31:59;16.80;80.70
67529;DHT22;54366;51.980;5.856;2023-05-07T07:34:33;16.80;80.60
67529;DHT22;54366;51.980;5.856;2023-05-07T07:37:06;16.90;80.50
67529;DHT22;54366;51.980;5.856;2023-05-07T07:39:39;16.90;80.30
67529;DHT22;54366;51.980;5.856;2023-05-07T07:42:12;17.00;80.10
67529;DHT22;54366;51.980;5.856;2023-05-07T07:44:38;17.00;80.00
67529;DHT22;54366;51.980;5.856;2023-05-07T07:47:14;17.10;80.10
67529;DHT22;54366;51.980;5.856;2023-05-07T07:49:42;17.10;79.50
67529;DHT22;54366;51.980;5.856;2023-05-07T07:52:15;17.20;79.70
67529;DHT22;54366;51.980;5.856;2023-05-07T07:54:48;17.10;79.30
67529;DHT22;54366;51.980;5.856;2023-05-07T07:57:14;17.20;79.40
67529;DHT22;54366;51.980;5.856;2023-05-07T07:59:49;17.20;79.10
67529;DHT22;54366;51.980;5.856;2023-05-07T08:02:29;17.30;78.90
67529;DHT22;54366;51.980;5.856;2023-05-07T08:05:03;17.30;78.70
67529;DHT22;54366;51.980;5.856;2023-05-07T08:07:43;17.30;78.60
67529;DHT22;54366;51.980;5.856;2023-05-07T08:10:17;17.30;78.70
67529;DHT22;54366;51.980;5.856;2023-05-07T08:13:00;17.30;79.40
67529;DHT22;54366;51.980;5.856;2023-05-07T08:15:36;17.30;78.60
67529;DHT22;54366;51.980;5.856;2023-05-07T08:18:03;17.30;78.70
67529;DHT22;54366;51.980;5.856;2023-05-07T08:20:36;17.40;78.60
67529;DHT22;54366;51.980;5.856;2023-05-07T08:23:16;17.40;78.30
67529;DHT22;54366;51.980;5.856;2023-05-07T08:25:50;17.50;78.50
67529;DHT22;54366;51.980;5.856;2023-05-07T08:28:24;17.50;78.20
67529;DHT22;54366;51.980;5.856;2023-05-07T08:30:51;17.50;78.20
67529;DHT22;54366;51.980;5.856;2023-05-07T08:33:24;17.60;78.30
67529;DHT22;54366;51.980;5.856;2023-05-07T08:35:57;17.70;78.00
67529;DHT22;54366;51.980;5.856;2023-05-07T08:38:30;17.70;77.90
67529;DHT22;54366;51.980;5.856;2023-05-07T08:41:04;17.70;77.80
67529;DHT22;54366;51.980;5.856;2023-05-07T08:43:38;17.70;77.20
67529;DHT22;54366;51.980;5.856;2023-05-07T08:46:17;17.80;77.30
67529;DHT22;54366;51.980;5.856;2023-05-07T08:48:54;17.80;77.40
67529;DHT22;54366;51.980;5.856;2023-05-07T08:51:27;17.90;77.40
67529;DHT22;54366;51.980;5.856;2023-05-07T08:54:01;18.00;77.20
67529;DHT22;54366;51.980;5.856;2023-05-07T08:56:34;18.00;77.20
67529;DHT22;54366;51.980;5.856;2023-05-07T08:59:07;18.10;77.20
67529;DHT22;54366;51.980;5.856;2023-05-07T09:01:42;18.10;76.60
67529;DHT22;54366;51.980;5.856;2023-05-07T09:04:15;18.10;76.50
67529;DHT22;54366;51.980;5.856;2023-05-07T09:06:48;18.10;76.00
67529;DHT22;54366;51.980;5.856;2023-05-07T09:09:18;18.20;76.00
67529;DHT22;54366;51.980;5.856;2023-05-07T09:11:57;18.20;76.40
67529;DHT22;54366;51.980;5.856;2023-05-07T09:14:34;18.20;76.20
67529;DHT22;54366;51.980;5.856;2023-05-07T09:17:02;18.30;76.10
67529;DHT22;54366;51.980;5.856;2023-05-07T09:19:35;18.40;76.00
67529;DHT22;54366;51.980;5.856;2023-05-07T09:22:08;18.50;76.00
67529;DHT22;54366;51.980;5.856;2023-05-07T09:24:54;18.60;76.00
67529;DHT22;54366;51.980;5.856;2023-05-07T09:27:28;18.70;74.30
67529;DHT22;54366;51.980;5.856;2023-05-07T09:30:08;18.80;74.50
67529;DHT22;54366;51.980;5.856;2023-05-07T09:32:41;18.80;74.40
67529;DHT22;54366;51.980;5.856;2023-05-07T09:35:18;19.00;75.00
67529;DHT22;54366;51.980;5.856;2023-05-07T09:37:57;19.10;74.20
67529;DHT22;54366;51.980;5.856;2023-05-07T09:40:34;19.10;73.90
67529;DHT22;54366;51.980;5.856;2023-05-07T09:43:13;19.20;73.00
67529;DHT22;54366;51.980;5.856;2023-05-07T09:45:52;19.30;73.10
67529;DHT22;54366;51.980;5.856;2023-05-07T09:48:27;19.40;72.40
67529;DHT22;54366;51.980;5.856;2023-05-07T09:51:02;19.50;72.10
67529;DHT22;54366;51.980;5.856;2023-05-07T09:53:36;19.70;71.70
67529;DHT22;54366;51.980;5.856;2023-05-07T09:56:09;19.80;70.90
67529;DHT22;54366;51.980;5.856;2023-05-07T09:58:43;20.00;70.50
67529;DHT22;54366;51.980;5.856;2023-05-07T10:01:19;20.10;71.00
67529;DHT22;54366;51.980;5.856;2023-05-07T10:04:02;20.20;70.80
67529;DHT22;54366;51.980;5.856;2023-05-07T10:06:44;20.30;70.30
67529;DHT22;54366;51.980;5.856;2023-05-07T10:09:12;20.40;70.50
67529;DHT22;54366;51.980;5.856;2023-05-07T10:11:51;20.50;70.60
67529;DHT22;54366;51.980;5.856;2023-05-07T10:14:24;20.60;69.20
67529;DHT22;54366;51.980;5.856;2023-05-07T10:16:58;20.70;69.30
67529;DHT22;54366;51.980;5.856;2023-05-07T10:19:31;20.80;68.20
67529;DHT22;54366;51.980;5.856;2023-05-07T10:22:06;20.90;68.60
67529;DHT22;54366;51.980;5.856;2023-05-07T10:24:40;21.10;68.00
67529;DHT22;54366;51.980;5.856;2023-05-07T10:27:17;21.20;67.50
67529;DHT22;54366;51.980;5.856;2023-05-07T10:30:16;21.30;66.10
67529;DHT22;54366;51.980;5.856;2023-05-07T10:32:55;21.30;66.10
67529;DHT22;54366;51.980;5.856;2023-05-07T10:35:36;21.50;66.40
67529;DHT22;54366;51.980;5.856;2023-05-07T10:38:11;21.70;65.60
67529;DHT22;54366;51.980;5.856;2023-05-07T10:40:45;22.00;65.80
67529;DHT22;54366;51.980;5.856;2023-05-07T10:43:18;22.30;65.60
67529;DHT22;54366;51.980;5.856;2023-05-07T10:46:17;22.60;64.20
67529;DHT22;54366;51.980;5.856;2023-05-07T10:49:15;22.80;62.10
67529;DHT22;54366;51.980;5.856;2023-05-07T10:52:22;23.00;61.40
67529;DHT22;54366;51.980;5.856;2023-05-07T10:55:20;23.10;61.60
67529;DHT22;54366;51.980;5.856;2023-05-07T10:58:25;23.20;60.60
67529;DHT22;54366;51.980;5.856;2023-05-07T11:01:55;23.40;60.60
67529;DHT22;54366;51.980;5.856;2023-05-07T11:04:43;23.40;60.20
67529;DHT22;54366;51.980;5.856;2023-05-07T11:07:30;23.40;61.30
67529;DHT22;54366;51.980;5.856;2023-05-07T11:10:12;23.50;60.30
67529;DHT22;54366;51.980;5.856;2023-05-07T11:12:55;23.50;60.80
67529;DHT22;54366;51.980;5.856;2023-05-07T11:15:36;23.40;60.40
67529;DHT22;54366;51.980;5.856;2023-05-07T11:18:17;23.30;60.00
67529;DHT22;54366;51.980;5.856;2023-05-07T11:20:58;23.10;59.40
67529;DHT22;54366;51.980;5.856;2023-05-07T11:23:55;23.00;59.90
67529;DHT22;54366;51.980;5.856;2023-05-07T11:26:44;23.00;60.90
67529;DHT22;54366;51.980;5.856;2023-05-07T11:29:21;23.00;61.30
67529;DHT22;54366;51.980;5.856;2023-05-07T11:32:00;23.10;61.50
67529;DHT22;54366;51.980;5.856;2023-05-07T11:34:39;23.10;61.10
67529;DHT22;54366;51.980;5.856;2023-05-07T11:37:17;23.20;59.30
67529;DHT22;54366;51.980;5.856;2023-05-07T11:40:04;23.20;59.90
67529;DHT22;54366;51.980;5.856;2023-05-07T11:42:39;23.10;59.10
67529;DHT22;54366;51.980;5.856;2023-05-07T11:45:07;23.10;59.40
67529;DHT22;54366;51.980;5.856;2023-05-07T11:47:41;23.10;60.30
67529;DHT22;54366;51.980;5.856;2023-05-07T11:50:14;23.00;60.20
67529;DHT22;54366;51.980;5.856;2023-05-07T11:52:51;23.00;59.60
67529;DHT22;54366;51.980;5.856;2023-05-07T11:55:24;23.00;60.00
67529;DHT22;54366;51.980;5.856;2023-05-07T11:57:52;22.90;60.60
67529;DHT22;54366;51.980;5.856;2023-05-07T12:00:25;23.00;60.80
67529;DHT22;54366;51.980;5.856;2023-05-07T12:03:06;23.00;60.30
67529;DHT22;54366;51.980;5.856;2023-05-07T12:05:46;23.00;60.30
67529;DHT22;54366;51.980;5.856;2023-05-07T12:08:20;23.00;60.70
67529;DHT22;54366;51.980;5.856;2023-05-07T12:10:49;23.10;60.50
67529;DHT22;54366;51.980;5.856;2023-05-07T12:13:25;23.10;60.00
67529;DHT22;54366;51.980;5.856;2023-05-07T12:15:59;23.10;60.30
67529;DHT22;54366;51.980;5.856;2023-05-07T12:18:32;23.20;60.70
67529;DHT22;54366;51.980;5.856;2023-05-07T12:21:06;23.20;60.00
67529;DHT22;54366;51.980;5.856;2023-05-07T12:23:40;23.10;59.70
67529;DHT22;54366;51.980;5.856;2023-05-07T12:26:13;23.10;59.70
67529;DHT22;54366;51.980;5.856;2023-05-07T12:28:39;23.10;59.30
67529;DHT22;54366;51.980;5.856;2023-05-07T12:31:14;23.10;60.30
67529;DHT22;54366;51.980;5.856;2023-05-07T12:33:47;23.10;60.50
67529;DHT22;54366;51.980;5.856;2023-05-07T12:36:20;23.10;61.60
67529;DHT22;54366;51.980;5.856;2023-05-07T12:38:49;23.10;63.00
67529;DHT22;54366;51.980;5.856;2023-05-07T12:41:22;23.10;62.20
67529;DHT22;54366;51.980;5.856;2023-05-07T12:43:59;23.10;62.30
67529;DHT22;54366;51.980;5.856;2023-05-07T12:46:32;23.00;62.30
67529;DHT22;54366;51.980;5.856;2023-05-07T12:49:05;23.00;62.70
67529;DHT22;54366;51.980;5.856;2023-05-07T12:51:31;23.00;62.10
67529;DHT22;54366;51.980;5.856;2023-05-07T12:54:04;23.00;62.20
67529;DHT22;54366;51.980;5.856;2023-05-07T12:56:37;23.00;62.50
67529;DHT22;54366;51.980;5.856;2023-05-07T12:59:03;22.90;62.10
67529;DHT22;54366;51.980;5.856;2023-05-07T13:01:36;22.90;61.70
67529;DHT22;54366;51.980;5.856;2023-05-07T13:04:09;22.80;62.20
67529;DHT22;54366;51.980;5.856;2023-05-07T13:06:55;22.80;63.10
67529;DHT22;54366;51.980;5.856;2023-05-07T13:09:28;22.80;63.30
67529;DHT22;54366;51.980;5.856;2023-05-07T13:12:04;22.90;63.70
67529;DHT22;54366;51.980;5.856;2023-05-07T13:14:31;22.80;62.90
67529;DHT22;54366;51.980;5.856;2023-05-07T13:17:04;22.90;63.70
67529;DHT22;54366;51.980;5.856;2023-05-07T13:19:37;22.90;63.50
67529;DHT22;54366;51.980;5.856;2023-05-07T13:22:10;22.80;62.90
67529;DHT22;54366;51.980;5.856;2023-05-07T13:24:43;22.90;62.90
67529;DHT22;54366;51.980;5.856;2023-05-07T13:27:16;22.80;63.60
67529;DHT22;54366;51.980;5.856;2023-05-07T13:29:49;22.80;62.80
67529;DHT22;54366;51.980;5.856;2023-05-07T13:32:22;22.80;62.60
67529;DHT22;54366;51.980;5.856;2023-05-07T13:34:55;22.80;62.90
67529;DHT22;54366;51.980;5.856;2023-05-07T13:37:21;22.80;62.30
67529;DHT22;54366;51.980;5.856;2023-05-07T13:39:54;22.80;62.20
67529;DHT22;54366;51.980;5.856;2023-05-07T13:42:27;22.80;62.30
67529;DHT22;54366;51.980;5.856;2023-05-07T13:45:00;22.80;61.70
67529;DHT22;54366;51.980;5.856;2023-05-07T13:47:33;22.80;61.70
67529;DHT22;54366;51.980;5.856;2023-05-07T13:50:07;22.80;61.30
67529;DHT22;54366;51.980;5.856;2023-05-07T13:52:40;22.80;60.00
67529;DHT22;54366;51.980;5.856;2023-05-07T13:55:14;22.90;60.20
67529;DHT22;54366;51.980;5.856;2023-05-07T13:57:47;22.90;59.90
67529;DHT22;54366;51.980;5.856;2023-05-07T14:00:14;22.90;60.00
67529;DHT22;54366;51.980;5.856;2023-05-07T14:02:49;22.90;60.10
67529;DHT22;54366;51.980;5.856;2023-05-07T14:05:22;23.00;59.80
67529;DHT22;54366;51.980;5.856;2023-05-07T14:08:00;23.10;59.50
67529;DHT22;54366;51.980;5.856;2023-05-07T14:10:33;23.10;59.80
67529;DHT22;54366;51.980;5.856;2023-05-07T14:13:00;23.10;59.70
67529;DHT22;54366;51.980;5.856;2023-05-07T14:15:33;23.10;59.30
67529;DHT22;54366;51.980;5.856;2023-05-07T14:18:06;23.20;59.10
67529;DHT22;54366;51.980;5.856;2023-05-07T14:20:39;23.10;58.70
67529;DHT22;54366;51.980;5.856;2023-05-07T14:23:12;23.10;58.30
67529;DHT22;54366;51.980;5.856;2023-05-07T14:25:45;23.10;57.60
67529;DHT22;54366;51.980;5.856;2023-05-07T14:28:13;23.00;58.10
67529;DHT22;54366;51.980;5.856;2023-05-07T14:30:46;23.00;58.20
67529;DHT22;54366;51.980;5.856;2023-05-07T14:33:19;23.00;58.10
67529;DHT22;54366;51.980;5.856;2023-05-07T14:35:52;22.90;57.00
67529;DHT22;54366;51.980;5.856;2023-05-07T14:38:25;22.80;57.80
67529;DHT22;54366;51.980;5.856;2023-05-07T14:40:58;22.80;57.90
67529;DHT22;54366;51.980;5.856;2023-05-07T14:43:31;22.80;58.60
67529;DHT22;54366;51.980;5.856;2023-05-07T14:46:04;22.70;58.50
67529;DHT22;54366;51.980;5.856;2023-05-07T14:48:37;22.70;58.30
67529;DHT22;54366;51.980;5.856;2023-05-07T14:51:03;22.60;58.40
67529;DHT22;54366;51.980;5.856;2023-05-07T14:53:36;22.50;59.00
67529;DHT22;54366;51.980;5.856;2023-05-07T14:56:09;22.50;59.70
67529;DHT22;54366;51.980;5.856;2023-05-07T14:58:42;22.50;60.00
67529;DHT22;54366;51.980;5.856;2023-05-07T15:01:15;22.50;60.30
67529;DHT22;54366;51.980;5.856;2023-05-07T15:03:48;22.40;59.90
67529;DHT22;54366;51.980;5.856;2023-05-07T15:06:21;22.40;60.40
67529;DHT22;54366;51.980;5.856;2023-05-07T15:09:08;22.30;60.80
67529;DHT22;54366;51.980;5.856;2023-05-07T15:11:41;22.30;61.10
67529;DHT22;54366;51.980;5.856;2023-05-07T15:14:14;22.20;61.20
67529;DHT22;54366;51.980;5.856;2023-05-07T15:16:48;22.20;61.10
67529;DHT22;54366;51.980;5.856;2023-05-07T15:19:15;22.20;60.80
67529;DHT22;54366;51.980;5.856;2023-05-07T15:21:49;22.10;60.40
67529;DHT22;54366;51.980;5.856;2023-05-07T15:24:15;22.10;59.80
67529;DHT22;54366;51.980;5.856;2023-05-07T15:26:48;22.00;60.10
67529;DHT22;54366;51.980;5.856;2023-05-07T15:29:21;22.00;60.30
67529;DHT22;54366;51.980;5.856;2023-05-07T15:31:56;21.90;60.70
67529;DHT22;54366;51.980;5.856;2023-05-07T15:34:23;21.80;60.30
67529;DHT22;54366;51.980;5.856;2023-05-07T15:36:56;21.70;60.00
67529;DHT22;54366;51.980;5.856;2023-05-07T15:39:30;21.50;60.30
67529;DHT22;54366;51.980;5.856;2023-05-07T15:41:56;21.50;60.00
67529;DHT22;54366;51.980;5.856;2023-05-07T15:44:29;21.40;60.40
67529;DHT22;54366;51.980;5.856;2023-05-07T15:47:04;21.30;60.90
67529;DHT22;54366;51.980;5.856;2023-05-07T15:49:30;21.20;61.40
67529;DHT22;54366;51.980;5.856;2023-05-07T15:52:03;21.10;62.20
67529;DHT22;54366;51.980;5.856;2023-05-07T15:54:36;21.00;62.60
67529;DHT22;54366;51.980;5.856;2023-05-07T15:57:03;20.90;62.70
67529;DHT22;54366;51.980;5.856;2023-05-07T15:59:38;20.90;63.20
67529;DHT22;54366;51.980;5.856;2023-05-07T16:02:05;20.80;63.70
67529;DHT22;54366;51.980;5.856;2023-05-07T16:04:38;20.80;64.80
67529;DHT22;54366;51.980;5.856;2023-05-07T16:07:11;20.70;66.00
67529;DHT22;54366;51.980;5.856;2023-05-07T16:09:51;20.60;66.80
67529;DHT22;54366;51.980;5.856;2023-05-07T16:12:24;20.50;68.00